Terminal Aerodrome Forecast
Issued by NWS Cleveland, OH

Home | Current Version | Previous Version | Graphics & Text | Print | Product List | Glossary Off
Versions: 1 2 3 4 5 6 7 8 9 10 11 12 13 14 15 16 17 18 19

000
FTUS41 KCLE 261700
TAFCAK
TAF
KCAK 261740Z 2618/2718 04010G18KT P6SM SCT050
     FM270000 35006KT P6SM SCT050
     FM270700 32006KT P6SM BKN050
     FM271100 32010KT P6SM OVC020=

USA.gov is the U.S. government's official web portal to all federal, state and local government web resources and services.